sensor_id;sensor_type;location;lat;lon;timestamp;temperature;humidity
80212;DHT22;70434;37.956;23.722;2023-11-21T00:02:21;16.60;53.10
80212;DHT22;70434;37.956;23.722;2023-11-21T00:04:48;16.60;53.20
80212;DHT22;70434;37.956;23.722;2023-11-21T00:07:14;16.60;53.30
80212;DHT22;70434;37.956;23.722;2023-11-21T00:09:40;16.50;53.30
80212;DHT22;70434;37.956;23.722;2023-11-21T00:12:07;16.50;53.50
80212;DHT22;70434;37.956;23.722;2023-11-21T00:14:38;16.50;53.50
80212;DHT22;70434;37.956;23.722;2023-11-21T00:17:04;16.50;53.50
80212;DHT22;70434;37.956;23.722;2023-11-21T00:19:31;16.50;53.50
80212;DHT22;70434;37.956;23.722;2023-11-21T00:21:57;16.40;53.70
80212;DHT22;70434;37.956;23.722;2023-11-21T00:24:24;16.40;53.70
80212;DHT22;70434;37.956;23.722;2023-11-21T00:26:50;16.40;53.70
80212;DHT22;70434;37.956;23.722;2023-11-21T00:29:16;16.50;53.60
80212;DHT22;70434;37.956;23.722;2023-11-21T00:31:44;16.50;53.50
80212;DHT22;70434;37.956;23.722;2023-11-21T00:34:11;16.60;53.50
80212;DHT22;70434;37.956;23.722;2023-11-21T00:36:37;16.60;53.60
80212;DHT22;70434;37.956;23.722;2023-11-21T00:39:03;16.60;53.70
80212;DHT22;70434;37.956;23.722;2023-11-21T00:41:31;16.60;53.80
80212;DHT22;70434;37.956;23.722;2023-11-21T00:43:57;16.60;53.80
80212;DHT22;70434;37.956;23.722;2023-11-21T00:46:24;16.50;54.10
80212;DHT22;70434;37.956;23.722;2023-11-21T00:48:52;16.30;54.40
80212;DHT22;70434;37.956;23.722;2023-11-21T00:51:19;16.30;54.60
80212;DHT22;70434;37.956;23.722;2023-11-21T00:53:47;16.20;54.90
80212;DHT22;70434;37.956;23.722;2023-11-21T00:56:12;16.10;55.10
80212;DHT22;70434;37.956;23.722;2023-11-21T00:58:39;16.00;55.40
80212;DHT22;70434;37.956;23.722;2023-11-21T01:01:08;16.10;55.40
80212;DHT22;70434;37.956;23.722;2023-11-21T01:03:33;16.10;55.50
80212;DHT22;70434;37.956;23.722;2023-11-21T01:05:59;16.00;55.90
80212;DHT22;70434;37.956;23.722;2023-11-21T01:08:25;16.00;56.00
80212;DHT22;70434;37.956;23.722;2023-11-21T01:10:51;16.00;55.90
80212;DHT22;70434;37.956;23.722;2023-11-21T01:13:16;16.10;55.80
80212;DHT22;70434;37.956;23.722;2023-11-21T01:15:42;16.20;55.50
80212;DHT22;70434;37.956;23.722;2023-11-21T01:18:08;16.20;55.30
80212;DHT22;70434;37.956;23.722;2023-11-21T01:20:34;16.20;55.40
80212;DHT22;70434;37.956;23.722;2023-11-21T01:23:00;16.20;55.70
80212;DHT22;70434;37.956;23.722;2023-11-21T01:25:25;16.00;56.00
80212;DHT22;70434;37.956;23.722;2023-11-21T01:27:52;16.00;56.20
80212;DHT22;70434;37.956;23.722;2023-11-21T01:30:18;15.90;56.50
80212;DHT22;70434;37.956;23.722;2023-11-21T01:32:43;15.90;56.40
80212;DHT22;70434;37.956;23.722;2023-11-21T01:35:12;16.00;56.20
80212;DHT22;70434;37.956;23.722;2023-11-21T01:37:38;16.00;56.20
80212;DHT22;70434;37.956;23.722;2023-11-21T01:40:05;16.00;56.40
80212;DHT22;70434;37.956;23.722;2023-11-21T01:42:35;15.80;56.90
80212;DHT22;70434;37.956;23.722;2023-11-21T01:45:01;15.70;57.20
80212;DHT22;70434;37.956;23.722;2023-11-21T01:47:31;15.80;57.00
80212;DHT22;70434;37.956;23.722;2023-11-21T01:49:58;15.80;56.90
80212;DHT22;70434;37.956;23.722;2023-11-21T01:52:24;15.80;57.00
80212;DHT22;70434;37.956;23.722;2023-11-21T01:54:50;15.70;57.20
80212;DHT22;70434;37.956;23.722;2023-11-21T01:57:16;15.60;57.50
80212;DHT22;70434;37.956;23.722;2023-11-21T01:59:42;15.60;57.90
80212;DHT22;70434;37.956;23.722;2023-11-21T02:02:10;15.50;57.90
80212;DHT22;70434;37.956;23.722;2023-11-21T02:04:36;15.60;57.90
80212;DHT22;70434;37.956;23.722;2023-11-21T02:07:03;15.70;57.60
80212;DHT22;70434;37.956;23.722;2023-11-21T02:09:31;15.70;57.40
80212;DHT22;70434;37.956;23.722;2023-11-21T02:12:00;15.80;57.20
80212;DHT22;70434;37.956;23.722;2023-11-21T02:14:27;15.80;57.10
80212;DHT22;70434;37.956;23.722;2023-11-21T02:16:54;15.70;57.20
80212;DHT22;70434;37.956;23.722;2023-11-21T02:19:22;15.70;57.30
80212;DHT22;70434;37.956;23.722;2023-11-21T02:21:53;15.80;57.10
80212;DHT22;70434;37.956;23.722;2023-11-21T02:24:23;15.80;57.00
80212;DHT22;70434;37.956;23.722;2023-11-21T02:26:49;15.80;57.00
80212;DHT22;70434;37.956;23.722;2023-11-21T02:29:21;15.90;56.70
80212;DHT22;70434;37.956;23.722;2023-11-21T02:31:56;15.90;56.50
80212;DHT22;70434;37.956;23.722;2023-11-21T02:34:22;15.90;56.60
80212;DHT22;70434;37.956;23.722;2023-11-21T02:36:50;15.90;56.50
80212;DHT22;70434;37.956;23.722;2023-11-21T02:39:17;16.00;56.50
80212;DHT22;70434;37.956;23.722;2023-11-21T02:41:43;16.00;56.40
80212;DHT22;70434;37.956;23.722;2023-11-21T02:44:10;16.00;56.30
80212;DHT22;70434;37.956;23.722;2023-11-21T02:46:36;16.00;56.40
80212;DHT22;70434;37.956;23.722;2023-11-21T02:49:05;16.00;56.40
80212;DHT22;70434;37.956;23.722;2023-11-21T02:51:32;16.00;56.30
80212;DHT22;70434;37.956;23.722;2023-11-21T02:53:58;16.00;56.40
80212;DHT22;70434;37.956;23.722;2023-11-21T02:56:26;16.00;56.50
80212;DHT22;70434;37.956;23.722;2023-11-21T02:58:52;16.00;56.30
80212;DHT22;70434;37.956;23.722;2023-11-21T03:01:18;15.90;57.40
80212;DHT22;70434;37.956;23.722;2023-11-21T03:03:44;15.80;56.90
80212;DHT22;70434;37.956;23.722;2023-11-21T03:06:10;15.70;57.20
80212;DHT22;70434;37.956;23.722;2023-11-21T03:08:35;15.70;57.10
80212;DHT22;70434;37.956;23.722;2023-11-21T03:11:01;15.80;57.00
80212;DHT22;70434;37.956;23.722;2023-11-21T03:13:30;15.80;56.90
80212;DHT22;70434;37.956;23.722;2023-11-21T03:15:56;15.70;57.10
80212;DHT22;70434;37.956;23.722;2023-11-21T03:18:21;15.60;57.60
80212;DHT22;70434;37.956;23.722;2023-11-21T03:20:52;15.60;57.60
80212;DHT22;70434;37.956;23.722;2023-11-21T03:23:18;15.60;57.40
80212;DHT22;70434;37.956;23.722;2023-11-21T03:25:43;15.70;57.30
80212;DHT22;70434;37.956;23.722;2023-11-21T03:28:09;15.70;57.10
80212;DHT22;70434;37.956;23.722;2023-11-21T03:30:35;15.70;57.10
80212;DHT22;70434;37.956;23.722;2023-11-21T03:33:01;15.70;57.10
80212;DHT22;70434;37.956;23.722;2023-11-21T03:35:26;15.70;57.20
80212;DHT22;70434;37.956;23.722;2023-11-21T03:37:53;15.60;57.30
80212;DHT22;70434;37.956;23.722;2023-11-21T03:40:19;15.70;57.30
80212;DHT22;70434;37.956;23.722;2023-11-21T03:42:46;15.60;57.30
80212;DHT22;70434;37.956;23.722;2023-11-21T03:45:12;15.60;57.40
80212;DHT22;70434;37.956;23.722;2023-11-21T03:47:42;15.70;57.30
80212;DHT22;70434;37.956;23.722;2023-11-21T03:50:08;15.70;57.10
80212;DHT22;70434;37.956;23.722;2023-11-21T03:52:34;15.60;57.30
80212;DHT22;70434;37.956;23.722;2023-11-21T03:55:01;15.60;57.40
80212;DHT22;70434;37.956;23.722;2023-11-21T03:57:27;15.50;57.50
80212;DHT22;70434;37.956;23.722;2023-11-21T03:59:55;15.50;57.60
80212;DHT22;70434;37.956;23.722;2023-11-21T04:02:21;15.60;57.50
80212;DHT22;70434;37.956;23.722;2023-11-21T04:04:47;15.60;57.50
80212;DHT22;70434;37.956;23.722;2023-11-21T04:07:13;15.60;57.50
80212;DHT22;70434;37.956;23.722;2023-11-21T04:09:39;15.70;57.30
80212;DHT22;70434;37.956;23.722;2023-11-21T04:12:07;15.70;57.10
80212;DHT22;70434;37.956;23.722;2023-11-21T04:14:34;15.80;56.90
80212;DHT22;70434;37.956;23.722;2023-11-21T04:17:00;15.80;57.00
80212;DHT22;70434;37.956;23.722;2023-11-21T04:19:25;15.70;57.20
80212;DHT22;70434;37.956;23.722;2023-11-21T04:21:51;15.70;57.30
80212;DHT22;70434;37.956;23.722;2023-11-21T04:24:17;15.60;57.70
80212;DHT22;70434;37.956;23.722;2023-11-21T04:26:44;15.50;58.00
80212;DHT22;70434;37.956;23.722;2023-11-21T04:29:09;15.50;58.00
80212;DHT22;70434;37.956;23.722;2023-11-21T04:31:35;15.50;57.80
80212;DHT22;70434;37.956;23.722;2023-11-21T04:34:01;15.60;57.70
80212;DHT22;70434;37.956;23.722;2023-11-21T04:36:29;15.70;57.50
80212;DHT22;70434;37.956;23.722;2023-11-21T04:38:56;15.70;57.30
80212;DHT22;70434;37.956;23.722;2023-11-21T04:41:22;15.80;57.30
80212;DHT22;70434;37.956;23.722;2023-11-21T04:43:48;15.80;57.20
80212;DHT22;70434;37.956;23.722;2023-11-21T04:46:14;15.80;57.30
80212;DHT22;70434;37.956;23.722;2023-11-21T04:48:40;15.80;57.20
80212;DHT22;70434;37.956;23.722;2023-11-21T04:51:06;15.80;57.20
80212;DHT22;70434;37.956;23.722;2023-11-21T04:53:32;15.80;57.20
80212;DHT22;70434;37.956;23.722;2023-11-21T04:55:58;15.80;57.10
80212;DHT22;70434;37.956;23.722;2023-11-21T04:58:24;15.90;57.20
80212;DHT22;70434;37.956;23.722;2023-11-21T05:00:50;15.90;57.00
80212;DHT22;70434;37.956;23.722;2023-11-21T05:03:15;15.90;57.00
80212;DHT22;70434;37.956;23.722;2023-11-21T05:05:41;15.80;57.10
80212;DHT22;70434;37.956;23.722;2023-11-21T05:08:07;15.80;57.20
80212;DHT22;70434;37.956;23.722;2023-11-21T05:10:33;15.90;57.30
80212;DHT22;70434;37.956;23.722;2023-11-21T05:12:59;15.80;57.40
80212;DHT22;70434;37.956;23.722;2023-11-21T05:15:25;15.80;57.40
80212;DHT22;70434;37.956;23.722;2023-11-21T05:17:53;15.80;57.40
80212;DHT22;70434;37.956;23.722;2023-11-21T05:20:20;15.80;57.40
80212;DHT22;70434;37.956;23.722;2023-11-21T05:22:50;15.80;57.50
80212;DHT22;70434;37.956;23.722;2023-11-21T05:25:16;15.80;57.50
80212;DHT22;70434;37.956;23.722;2023-11-21T05:27:46;15.80;57.50
80212;DHT22;70434;37.956;23.722;2023-11-21T05:30:12;15.80;57.40
80212;DHT22;70434;37.956;23.722;2023-11-21T05:32:38;15.80;57.40
80212;DHT22;70434;37.956;23.722;2023-11-21T05:35:05;15.90;57.40
80212;DHT22;70434;37.956;23.722;2023-11-21T05:37:37;15.90;57.50
80212;DHT22;70434;37.956;23.722;2023-11-21T05:40:06;15.70;57.70
80212;DHT22;70434;37.956;23.722;2023-11-21T05:42:33;15.70;58.10
80212;DHT22;70434;37.956;23.722;2023-11-21T05:44:59;15.70;58.20
80212;DHT22;70434;37.956;23.722;2023-11-21T05:47:39;15.50;58.40
80212;DHT22;70434;37.956;23.722;2023-11-21T05:50:07;15.60;58.40
80212;DHT22;70434;37.956;23.722;2023-11-21T05:52:36;15.60;58.50
80212;DHT22;70434;37.956;23.722;2023-11-21T05:55:03;15.60;58.30
80212;DHT22;70434;37.956;23.722;2023-11-21T05:57:30;15.60;58.30
80212;DHT22;70434;37.956;23.722;2023-11-21T05:59:56;15.60;58.50
80212;DHT22;70434;37.956;23.722;2023-11-21T06:02:21;15.60;58.40
80212;DHT22;70434;37.956;23.722;2023-11-21T06:04:47;15.60;58.60
80212;DHT22;70434;37.956;23.722;2023-11-21T06:07:13;15.70;58.50
80212;DHT22;70434;37.956;23.722;2023-11-21T06:09:38;15.60;58.70
80212;DHT22;70434;37.956;23.722;2023-11-21T06:12:04;15.70;59.10
80212;DHT22;70434;37.956;23.722;2023-11-21T06:14:31;16.00;58.70
80212;DHT22;70434;37.956;23.722;2023-11-21T06:16:58;16.30;57.50
80212;DHT22;70434;37.956;23.722;2023-11-21T06:19:24;16.50;56.50
80212;DHT22;70434;37.956;23.722;2023-11-21T06:21:50;16.50;56.50
80212;DHT22;70434;37.956;23.722;2023-11-21T06:24:16;16.50;56.70
80212;DHT22;70434;37.956;23.722;2023-11-21T06:26:42;16.50;56.80
80212;DHT22;70434;37.956;23.722;2023-11-21T06:29:09;16.30;57.00
80212;DHT22;70434;37.956;23.722;2023-11-21T06:31:36;16.20;57.50
80212;DHT22;70434;37.956;23.722;2023-11-21T06:34:02;16.20;57.40
80212;DHT22;70434;37.956;23.722;2023-11-21T06:36:28;16.30;57.50
80212;DHT22;70434;37.956;23.722;2023-11-21T06:38:54;16.40;57.40
80212;DHT22;70434;37.956;23.722;2023-11-21T06:41:20;16.30;57.40
80212;DHT22;70434;37.956;23.722;2023-11-21T06:43:46;16.30;57.50
80212;DHT22;70434;37.956;23.722;2023-11-21T06:46:13;16.30;57.60
80212;DHT22;70434;37.956;23.722;2023-11-21T06:48:44;16.40;57.70
80212;DHT22;70434;37.956;23.722;2023-11-21T06:51:10;16.50;57.60
80212;DHT22;70434;37.956;23.722;2023-11-21T06:53:37;16.50;57.40
80212;DHT22;70434;37.956;23.722;2023-11-21T06:56:03;16.50;57.50
80212;DHT22;70434;37.956;23.722;2023-11-21T06:58:29;16.50;57.50
80212;DHT22;70434;37.956;23.722;2023-11-21T07:00:54;16.70;57.50
80212;DHT22;70434;37.956;23.722;2023-11-21T07:03:20;16.80;56.90
80212;DHT22;70434;37.956;23.722;2023-11-21T07:05:46;16.90;56.50
80212;DHT22;70434;37.956;23.722;2023-11-21T07:08:11;17.00;56.40
80212;DHT22;70434;37.956;23.722;2023-11-21T07:10:38;17.10;56.20
80212;DHT22;70434;37.956;23.722;2023-11-21T07:13:04;17.10;56.00
80212;DHT22;70434;37.956;23.722;2023-11-21T07:15:29;17.20;56.10
80212;DHT22;70434;37.956;23.722;2023-11-21T07:17:55;17.30;55.80
80212;DHT22;70434;37.956;23.722;2023-11-21T07:20:21;17.40;55.70
80212;DHT22;70434;37.956;23.722;2023-11-21T07:22:47;17.50;55.50
80212;DHT22;70434;37.956;23.722;2023-11-21T07:25:12;17.60;55.30
80212;DHT22;70434;37.956;23.722;2023-11-21T07:27:38;17.60;54.90
80212;DHT22;70434;37.956;23.722;2023-11-21T07:30:04;17.70;54.60
80212;DHT22;70434;37.956;23.722;2023-11-21T07:32:31;17.80;54.60
80212;DHT22;70434;37.956;23.722;2023-11-21T07:34:57;17.90;54.40
80212;DHT22;70434;37.956;23.722;2023-11-21T07:37:25;17.90;53.90
80212;DHT22;70434;37.956;23.722;2023-11-21T07:39:54;17.90;53.60
80212;DHT22;70434;37.956;23.722;2023-11-21T07:42:23;18.00;53.50
80212;DHT22;70434;37.956;23.722;2023-11-21T07:44:49;18.00;53.40
80212;DHT22;70434;37.956;23.722;2023-11-21T07:47:15;18.10;53.40
80212;DHT22;70434;37.956;23.722;2023-11-21T07:49:44;18.10;53.30
80212;DHT22;70434;37.956;23.722;2023-11-21T07:52:10;18.20;53.20
80212;DHT22;70434;37.956;23.722;2023-11-21T07:54:36;18.30;52.90
80212;DHT22;70434;37.956;23.722;2023-11-21T07:57:02;18.30;52.70
80212;DHT22;70434;37.956;23.722;2023-11-21T07:59:29;18.40;52.50
80212;DHT22;70434;37.956;23.722;2023-11-21T08:01:56;18.50;52.30
80212;DHT22;70434;37.956;23.722;2023-11-21T08:04:21;18.60;52.80
80212;DHT22;70434;37.956;23.722;2023-11-21T08:06:47;18.60;52.50
80212;DHT22;70434;37.956;23.722;2023-11-21T08:09:13;18.60;53.10
80212;DHT22;70434;37.956;23.722;2023-11-21T08:11:39;18.60;52.40
80212;DHT22;70434;37.956;23.722;2023-11-21T08:14:05;18.60;52.50
80212;DHT22;70434;37.956;23.722;2023-11-21T08:16:31;18.70;53.50
80212;DHT22;70434;37.956;23.722;2023-11-21T08:18:56;18.80;52.00
80212;DHT22;70434;37.956;23.722;2023-11-21T08:21:22;18.90;51.80
80212;DHT22;70434;37.956;23.722;2023-11-21T08:23:54;18.90;51.90
80212;DHT22;70434;37.956;23.722;2023-11-21T08:26:22;18.90;52.00
80212;DHT22;70434;37.956;23.722;2023-11-21T08:28:49;18.70;51.30
80212;DHT22;70434;37.956;23.722;2023-11-21T08:31:14;18.70;51.80
80212;DHT22;70434;37.956;23.722;2023-11-21T08:33:41;18.80;51.90
80212;DHT22;70434;37.956;23.722;2023-11-21T08:36:08;19.00;51.80
80212;DHT22;70434;37.956;23.722;2023-11-21T08:38:34;19.10;51.50
80212;DHT22;70434;37.956;23.722;2023-11-21T08:41:05;19.20;51.20
80212;DHT22;70434;37.956;23.722;2023-11-21T08:43:36;19.40;50.90
80212;DHT22;70434;37.956;23.722;2023-11-21T08:46:08;19.40;50.50
80212;DHT22;70434;37.956;23.722;2023-11-21T08:48:37;19.20;50.80
80212;DHT22;70434;37.956;23.722;2023-11-21T08:51:03;19.20;50.40
80212;DHT22;70434;37.956;23.722;2023-11-21T08:53:30;19.20;50.40
80212;DHT22;70434;37.956;23.722;2023-11-21T08:55:56;19.20;50.70
80212;DHT22;70434;37.956;23.722;2023-11-21T11:30:22;20.50;51.90
80212;DHT22;70434;37.956;23.722;2023-11-21T11:33:21;20.80;51.80
80212;DHT22;70434;37.956;23.722;2023-11-21T11:36:02;20.90;51.80
80212;DHT22;70434;37.956;23.722;2023-11-21T11:38:33;20.90;52.00
80212;DHT22;70434;37.956;23.722;2023-11-21T11:41:04;20.90;52.00
80212;DHT22;70434;37.956;23.722;2023-11-21T11:43:31;20.90;52.00
80212;DHT22;70434;37.956;23.722;2023-11-21T11:46:10;20.80;52.20
80212;DHT22;70434;37.956;23.722;2023-11-21T11:48:39;20.90;52.10
80212;DHT22;70434;37.956;23.722;2023-11-21T11:51:15;20.90;52.10
80212;DHT22;70434;37.956;23.722;2023-11-21T11:53:44;20.90;52.20
80212;DHT22;70434;37.956;23.722;2023-11-21T11:58:47;20.80;52.80
80212;DHT22;70434;37.956;23.722;2023-11-21T12:01:13;20.90;52.80
80212;DHT22;70434;37.956;23.722;2023-11-21T12:03:39;20.90;52.60
80212;DHT22;70434;37.956;23.722;2023-11-21T12:06:05;21.00;52.50
80212;DHT22;70434;37.956;23.722;2023-11-21T12:08:32;20.90;53.00
80212;DHT22;70434;37.956;23.722;2023-11-21T12:10:58;20.70;53.80
80212;DHT22;70434;37.956;23.722;2023-11-21T12:13:24;20.60;54.00
80212;DHT22;70434;37.956;23.722;2023-11-21T12:15:50;20.60;54.50
80212;DHT22;70434;37.956;23.722;2023-11-21T12:18:16;20.60;54.50
80212;DHT22;70434;37.956;23.722;2023-11-21T12:20:41;20.60;54.70
80212;DHT22;70434;37.956;23.722;2023-11-21T12:23:08;20.60;54.70
80212;DHT22;70434;37.956;23.722;2023-11-21T12:25:40;20.70;54.60
80212;DHT22;70434;37.956;23.722;2023-11-21T12:28:06;20.70;54.90
80212;DHT22;70434;37.956;23.722;2023-11-21T12:30:34;20.70;55.10
80212;DHT22;70434;37.956;23.722;2023-11-21T12:33:04;20.60;55.50
80212;DHT22;70434;37.956;23.722;2023-11-21T12:35:33;20.70;55.30
80212;DHT22;70434;37.956;23.722;2023-11-21T12:38:00;20.70;55.10
80212;DHT22;70434;37.956;23.722;2023-11-21T12:40:28;20.80;55.10
80212;DHT22;70434;37.956;23.722;2023-11-21T12:42:59;20.90;55.00
80212;DHT22;70434;37.956;23.722;2023-11-21T12:45:27;20.90;54.90
80212;DHT22;70434;37.956;23.722;2023-11-21T12:48:04;20.90;55.10
80212;DHT22;70434;37.956;23.722;2023-11-21T12:50:35;20.90;55.40
80212;DHT22;70434;37.956;23.722;2023-11-21T12:53:11;20.80;55.80
80212;DHT22;70434;37.956;23.722;2023-11-21T12:55:43;20.70;56.40
80212;DHT22;70434;37.956;23.722;2023-11-21T12:58:09;20.60;56.40
80212;DHT22;70434;37.956;23.722;2023-11-21T13:00:38;20.60;56.20
80212;DHT22;70434;37.956;23.722;2023-11-21T13:03:10;20.70;56.40
80212;DHT22;70434;37.956;23.722;2023-11-21T13:05:39;20.70;56.30
80212;DHT22;70434;37.956;23.722;2023-11-21T13:08:08;20.80;56.10
80212;DHT22;70434;37.956;23.722;2023-11-21T13:10:36;20.90;55.70
80212;DHT22;70434;37.956;23.722;2023-11-21T13:13:07;21.00;55.50
80212;DHT22;70434;37.956;23.722;2023-11-21T13:15:38;21.10;55.30
80212;DHT22;70434;37.956;23.722;2023-11-21T13:18:04;21.10;55.10
80212;DHT22;70434;37.956;23.722;2023-11-21T13:20:30;21.10;55.10
80212;DHT22;70434;37.956;23.722;2023-11-21T13:22:56;21.30;55.10
80212;DHT22;70434;37.956;23.722;2023-11-21T13:25:27;21.30;54.90
80212;DHT22;70434;37.956;23.722;2023-11-21T13:27:57;21.20;55.10
80212;DHT22;70434;37.956;23.722;2023-11-21T13:30:24;21.20;55.40
80212;DHT22;70434;37.956;23.722;2023-11-21T13:32:56;21.20;55.40
80212;DHT22;70434;37.956;23.722;2023-11-21T13:35:27;21.30;55.10
80212;DHT22;70434;37.956;23.722;2023-11-21T13:38:04;21.30;54.90
80212;DHT22;70434;37.956;23.722;2023-11-21T13:40:32;21.40;54.80
80212;DHT22;70434;37.956;23.722;2023-11-21T13:42:59;21.40;54.80
80212;DHT22;70434;37.956;23.722;2023-11-21T13:45:29;21.40;54.80
80212;DHT22;70434;37.956;23.722;2023-11-21T13:47:56;21.50;54.70
80212;DHT22;70434;37.956;23.722;2023-11-21T13:50:28;21.50;54.40
80212;DHT22;70434;37.956;23.722;2023-11-21T13:53:02;21.60;54.20
80212;DHT22;70434;37.956;23.722;2023-11-21T13:55:36;21.60;54.10
80212;DHT22;70434;37.956;23.722;2023-11-21T13:58:03;21.60;54.30
80212;DHT22;70434;37.956;23.722;2023-11-21T14:00:30;21.60;54.30
80212;DHT22;70434;37.956;23.722;2023-11-21T14:03:22;21.50;54.60
80212;DHT22;70434;37.956;23.722;2023-11-21T14:05:58;21.50;54.40
80212;DHT22;70434;37.956;23.722;2023-11-21T14:08:26;21.40;54.60
80212;DHT22;70434;37.956;23.722;2023-11-21T14:10:57;21.30;55.10
80212;DHT22;70434;37.956;23.722;2023-11-21T14:13:28;21.20;55.40
80212;DHT22;70434;37.956;23.722;2023-11-21T14:15:54;21.30;55.40
80212;DHT22;70434;37.956;23.722;2023-11-21T14:18:24;21.20;55.60
80212;DHT22;70434;37.956;23.722;2023-11-21T14:21:04;21.10;55.90
80212;DHT22;70434;37.956;23.722;2023-11-21T14:23:31;21.10;55.90
80212;DHT22;70434;37.956;23.722;2023-11-21T14:25:58;21.10;55.90
80212;DHT22;70434;37.956;23.722;2023-11-21T14:28:26;21.00;56.00
80212;DHT22;70434;37.956;23.722;2023-11-21T14:30:52;20.90;56.30
80212;DHT22;70434;37.956;23.722;2023-11-21T14:33:18;20.80;56.60
80212;DHT22;70434;37.956;23.722;2023-11-21T14:35:43;20.70;57.20
80212;DHT22;70434;37.956;23.722;2023-11-21T14:38:10;20.70;57.30
80212;DHT22;70434;37.956;23.722;2023-11-21T14:40:36;20.70;57.60
80212;DHT22;70434;37.956;23.722;2023-11-21T14:43:05;20.70;57.70
80212;DHT22;70434;37.956;23.722;2023-11-21T14:45:32;20.70;57.60
80212;DHT22;70434;37.956;23.722;2023-11-21T14:47:58;20.70;57.50
80212;DHT22;70434;37.956;23.722;2023-11-21T14:50:30;20.70;57.80
80212;DHT22;70434;37.956;23.722;2023-11-21T14:53:11;20.70;58.10
80212;DHT22;70434;37.956;23.722;2023-11-21T14:55:39;20.60;58.10
80212;DHT22;70434;37.956;23.722;2023-11-21T14:58:18;20.70;58.20
80212;DHT22;70434;37.956;23.722;2023-11-21T15:00:58;20.60;58.20
80212;DHT22;70434;37.956;23.722;2023-11-21T15:03:28;20.50;58.70
80212;DHT22;70434;37.956;23.722;2023-11-21T15:05:57;20.50;58.70
80212;DHT22;70434;37.956;23.722;2023-11-21T15:08:24;20.50;58.50
80212;DHT22;70434;37.956;23.722;2023-11-21T15:10:57;20.50;58.50
80212;DHT22;70434;37.956;23.722;2023-11-21T15:13:23;20.50;58.50
80212;DHT22;70434;37.956;23.722;2023-11-21T15:15:50;20.50;58.70
80212;DHT22;70434;37.956;23.722;2023-11-21T15:18:19;20.50;58.70
80212;DHT22;70434;37.956;23.722;2023-11-21T15:20:44;20.40;58.80
80212;DHT22;70434;37.956;23.722;2023-11-21T15:23:10;20.40;58.90
80212;DHT22;70434;37.956;23.722;2023-11-21T15:25:38;20.40;59.00
80212;DHT22;70434;37.956;23.722;2023-11-21T15:28:04;20.30;59.20
80212;DHT22;70434;37.956;23.722;2023-11-21T15:30:31;20.30;59.20
80212;DHT22;70434;37.956;23.722;2023-11-21T15:33:00;20.30;59.20
80212;DHT22;70434;37.956;23.722;2023-11-21T15:35:26;20.30;59.10
80212;DHT22;70434;37.956;23.722;2023-11-21T15:37:54;20.30;59.00
80212;DHT22;70434;37.956;23.722;2023-11-21T15:40:23;20.30;59.20
80212;DHT22;70434;37.956;23.722;2023-11-21T15:42:49;20.30;59.20
80212;DHT22;70434;37.956;23.722;2023-11-21T15:45:15;20.20;59.40
80212;DHT22;70434;37.956;23.722;2023-11-21T15:47:44;20.20;59.30
80212;DHT22;70434;37.956;23.722;2023-11-21T15:50:10;20.20;59.40
80212;DHT22;70434;37.956;23.722;2023-11-21T15:52:36;20.20;59.40
80212;DHT22;70434;37.956;23.722;2023-11-21T15:55:02;20.20;59.40
80212;DHT22;70434;37.956;23.722;2023-11-21T15:57:28;20.10;59.40
80212;DHT22;70434;37.956;23.722;2023-11-21T15:59:54;20.10;59.40
80212;DHT22;70434;37.956;23.722;2023-11-21T16:02:20;20.10;59.50
80212;DHT22;70434;37.956;23.722;2023-11-21T16:04:45;20.10;59.60
80212;DHT22;70434;37.956;23.722;2023-11-21T16:07:12;20.10;59.60
80212;DHT22;70434;37.956;23.722;2023-11-21T16:09:38;20.10;59.70
80212;DHT22;70434;37.956;23.722;2023-11-21T16:12:06;20.00;59.60
80212;DHT22;70434;37.956;23.722;2023-11-21T16:14:34;20.00;59.90
80212;DHT22;70434;37.956;23.722;2023-11-21T16:17:01;20.00;60.20
80212;DHT22;70434;37.956;23.722;2023-11-21T16:19:28;19.90;60.30
80212;DHT22;70434;37.956;23.722;2023-11-21T16:21:53;19.90;60.30
80212;DHT22;70434;37.956;23.722;2023-11-21T16:24:19;19.90;60.50
80212;DHT22;70434;37.956;23.722;2023-11-21T16:26:48;19.90;60.60
80212;DHT22;70434;37.956;23.722;2023-11-21T16:29:14;19.90;60.60
80212;DHT22;70434;37.956;23.722;2023-11-21T16:31:40;19.90;60.50
80212;DHT22;70434;37.956;23.722;2023-11-21T16:34:14;19.90;60.50
80212;DHT22;70434;37.956;23.722;2023-11-21T16:36:41;19.90;60.60
80212;DHT22;70434;37.956;23.722;2023-11-21T16:39:12;19.80;60.50
80212;DHT22;70434;37.956;23.722;2023-11-21T16:41:41;19.80;60.70
80212;DHT22;70434;37.956;23.722;2023-11-21T16:44:17;19.80;60.90
80212;DHT22;70434;37.956;23.722;2023-11-21T16:46:47;19.80;61.10
80212;DHT22;70434;37.956;23.722;2023-11-21T16:49:15;19.70;62.10
80212;DHT22;70434;37.956;23.722;2023-11-21T16:51:45;19.70;62.00
80212;DHT22;70434;37.956;23.722;2023-11-21T16:54:13;19.70;61.10
80212;DHT22;70434;37.956;23.722;2023-11-21T16:56:40;19.70;61.10
80212;DHT22;70434;37.956;23.722;2023-11-21T16:59:06;19.70;61.10
80212;DHT22;70434;37.956;23.722;2023-11-21T17:01:32;19.70;61.00
80212;DHT22;70434;37.956;23.722;2023-11-21T17:03:57;19.70;61.00
80212;DHT22;70434;37.956;23.722;2023-11-21T17:06:24;19.70;61.00
80212;DHT22;70434;37.956;23.722;2023-11-21T17:08:54;19.80;61.10
80212;DHT22;70434;37.956;23.722;2023-11-21T17:11:21;19.80;61.00
80212;DHT22;70434;37.956;23.722;2023-11-21T17:13:47;19.80;61.10
80212;DHT22;70434;37.956;23.722;2023-11-21T17:16:12;19.70;61.10
80212;DHT22;70434;37.956;23.722;2023-11-21T17:18:38;19.70;61.20
80212;DHT22;70434;37.956;23.722;2023-11-21T17:21:04;19.70;61.30
80212;DHT22;70434;37.956;23.722;2023-11-21T17:23:31;19.70;61.40
80212;DHT22;70434;37.956;23.722;2023-11-21T17:25:57;19.70;61.40
80212;DHT22;70434;37.956;23.722;2023-11-21T17:28:23;19.70;61.50
80212;DHT22;70434;37.956;23.722;2023-11-21T17:30:49;19.60;61.40
80212;DHT22;70434;37.956;23.722;2023-11-21T17:33:15;19.70;61.50
80212;DHT22;70434;37.956;23.722;2023-11-21T17:35:43;19.70;61.40
80212;DHT22;70434;37.956;23.722;2023-11-21T17:38:10;19.70;61.40
80212;DHT22;70434;37.956;23.722;2023-11-21T17:40:41;19.70;61.40
80212;DHT22;70434;37.956;23.722;2023-11-21T17:43:07;19.70;61.30
80212;DHT22;70434;37.956;23.722;2023-11-21T17:45:33;19.70;61.30
80212;DHT22;70434;37.956;23.722;2023-11-21T17:47:59;19.60;61.30
80212;DHT22;70434;37.956;23.722;2023-11-21T17:50:27;19.60;61.30
80212;DHT22;70434;37.956;23.722;2023-11-21T17:52:53;19.60;62.30